Time;durP1;ratioP1;P1;durP2;ratioP2;P2;SDS_P1;SDS_P2;PMS_P1;PMS_P2;Temp;Humidity;BMP_temperature;BMP_pressure;BME280_temperature;BME280_humidity;BME280_pressure;Samples;Min_cycle;Max_cycle;Signal;HPM_P1;HPM_P2
2023/06/28 00:00:08;;;;;;;9.98;3.95;;;14.90;99.90;;;;;;5066553;28;20041;-80
2023/06/28 00:02:36;;;;;;;12.63;4.07;;;14.90;99.90;;;;;;5047845;28;20029;-80
2023/06/28 00:05:08;;;;;;;9.07;3.38;;;14.90;99.90;;;;;;5052420;28;20056;-80
2023/06/28 00:07:34;;;;;;;10.48;3.75;;;14.90;99.90;;;;;;5046229;28;20104;-80
2023/06/28 00:10:00;;;;;;;7.28;3.63;;;14.90;99.90;;;;;;5058344;28;20052;-80
2023/06/28 00:12:28;;;;;;;8.98;4.10;;;14.90;99.90;;;;;;5068197;28;20052;-80
2023/06/28 00:14:54;;;;;;;9.00;3.38;;;14.90;99.90;;;;;;5070766;28;20097;-80
2023/06/28 00:17:27;;;;;;;5.93;3.40;;;14.90;99.90;;;;;;5068398;28;20068;-80
2023/06/28 00:19:58;;;;;;;6.63;3.90;;;14.80;99.90;;;;;;5067044;28;20066;-80
2023/06/28 00:22:30;;;;;;;9.38;4.38;;;14.80;99.90;;;;;;5060504;28;20045;-80
2023/06/28 00:24:57;;;;;;;9.35;4.05;;;14.80;99.90;;;;;;5059389;28;20045;-80
2023/06/28 00:27:23;;;;;;;5.70;3.80;;;14.80;99.90;;;;;;5058557;28;20048;-80
2023/06/28 00:29:48;;;;;;;7.22;3.78;;;14.80;99.90;;;;;;5054727;28;20044;-80
2023/06/28 00:32:14;;;;;;;6.07;3.58;;;14.70;99.90;;;;;;5055061;28;20041;-80
2023/06/28 00:34:40;;;;;;;6.30;4.03;;;14.70;99.90;;;;;;5064491;28;20040;-80
2023/06/28 00:37:05;;;;;;;9.57;4.40;;;14.70;99.90;;;;;;5061703;28;20037;-80
2023/06/28 00:39:33;;;;;;;9.18;4.50;;;14.70;99.90;;;;;;5060153;28;20077;-80
2023/06/28 00:41:59;;;;;;;6.75;3.78;;;14.70;99.90;;;;;;5043399;28;20510;-81
2023/06/28 00:44:24;;;;;;;7.07;4.47;;;14.70;99.90;;;;;;5059130;28;20041;-80
2023/06/28 00:46:51;;;;;;;7.85;4.22;;;14.60;99.90;;;;;;5058106;28;20045;-80
2023/06/28 00:49:17;;;;;;;9.10;4.32;;;14.60;99.90;;;;;;5060241;28;20123;-79
2023/06/28 00:51:44;;;;;;;8.98;4.70;;;14.60;99.90;;;;;;5040183;28;20506;-80
2023/06/28 00:54:10;;;;;;;7.13;4.90;;;14.60;99.90;;;;;;5055163;28;20518;-79
2023/06/28 00:56:37;;;;;;;7.97;4.78;;;14.60;99.90;;;;;;5058426;28;20045;-80
2023/06/28 00:59:03;;;;;;;9.90;4.43;;;14.50;99.90;;;;;;5058304;28;20072;-80
2023/06/28 01:01:30;;;;;;;7.15;4.93;;;14.60;99.90;;;;;;5058769;28;20291;-80
2023/06/28 01:03:57;;;;;;;8.85;5.32;;;14.50;99.90;;;;;;5057505;28;20048;-80
2023/06/28 01:06:25;;;;;;;10.93;5.78;;;14.50;99.90;;;;;;5041337;28;20101;-80
2023/06/28 01:08:52;;;;;;;8.70;4.75;;;14.50;99.90;;;;;;5060144;28;20065;-79
2023/06/28 01:11:18;;;;;;;6.82;4.88;;;14.50;99.90;;;;;;5024344;28;20391;-80
2023/06/28 01:13:45;;;;;;;9.05;4.85;;;14.50;99.90;;;;;;5059268;28;20040;-80
2023/06/28 01:16:11;;;;;;;7.85;4.80;;;14.50;99.90;;;;;;5041181;28;20442;-80
2023/06/28 01:18:37;;;;;;;9.15;5.07;;;14.40;99.90;;;;;;5061862;28;20044;-80
2023/06/28 01:21:07;;;;;;;7.93;4.90;;;14.40;99.90;;;;;;5061142;28;20095;-80
2023/06/28 01:23:33;;;;;;;9.93;4.80;;;14.40;99.90;;;;;;5039414;28;20053;-81
2023/06/28 01:26:03;;;;;;;8.52;5.57;;;14.40;99.90;;;;;;5059625;28;20080;-81
2023/06/28 01:28:31;;;;;;;12.18;5.10;;;14.30;99.90;;;;;;5041213;28;20046;-80
2023/06/28 01:30:59;;;;;;;6.53;4.60;;;14.30;99.90;;;;;;5038066;28;20045;-82
2023/06/28 01:33:25;;;;;;;;;;;14.30;99.90;;;;;;5041952;28;20468;-81
2023/06/28 01:35:51;;;;;;;12.68;5.43;;;14.30;99.90;;;;;;5061253;28;19925;-80
2023/06/28 01:38:17;;;;;;;10.50;5.53;;;14.30;99.90;;;;;;5058587;28;20049;-81
2023/06/28 01:40:44;;;;;;;14.20;5.32;;;14.30;99.90;;;;;;5056310;28;20057;-80
2023/06/28 01:43:09;;;;;;;12.20;4.63;;;14.30;99.90;;;;;;5024309;28;20052;-81
2023/06/28 01:45:37;;;;;;;8.13;5.03;;;14.30;99.90;;;;;;5042205;28;20403;-80
2023/06/28 01:48:03;;;;;;;8.43;4.55;;;14.30;99.90;;;;;;5053847;28;20051;-80
2023/06/28 01:50:29;;;;;;;7.15;4.78;;;14.30;99.90;;;;;;5043012;28;20041;-81
2023/06/28 01:52:58;;;;;;;7.75;4.82;;;14.30;99.90;;;;;;5056319;28;20037;-80
2023/06/28 01:55:24;;;;;;;8.02;4.50;;;14.20;99.90;;;;;;5058351;28;20080;-80
2023/06/28 01:57:50;;;;;;;8.65;4.85;;;14.20;99.90;;;;;;5056079;28;20487;-80
2023/06/28 02:00:16;;;;;;;8.43;4.72;;;14.20;99.90;;;;;;5057213;28;20041;-80
2023/06/28 02:02:42;;;;;;;7.88;4.68;;;14.10;99.90;;;;;;5041901;28;20033;-79
2023/06/28 02:05:08;;;;;;;9.52;5.05;;;14.10;99.90;;;;;;5060141;28;20048;-79
2023/06/28 02:07:33;;;;;;;9.98;5.15;;;14.10;99.90;;;;;;5041309;28;20053;-80
2023/06/28 02:09:59;;;;;;;7.45;5.10;;;14.10;99.90;;;;;;5056148;28;20067;-80
2023/06/28 02:12:25;;;;;;;8.75;4.45;;;14.10;99.90;;;;;;5060454;28;20077;-80
2023/06/28 02:14:52;;;;;;;6.30;5.15;;;14.10;99.90;;;;;;5062776;28;20048;-80
2023/06/28 02:17:20;;;;;;;8.00;5.13;;;14.10;99.90;;;;;;5060967;28;20060;-80
2023/06/28 02:19:46;;;;;;;10.80;5.30;;;14.10;99.90;;;;;;5057996;28;20128;-80
2023/06/28 02:22:12;;;;;;;11.00;5.30;;;14.10;99.90;;;;;;5058480;28;20072;-80
2023/06/28 02:24:38;;;;;;;10.63;4.75;;;14.10;99.90;;;;;;5039653;28;20056;-83
2023/06/28 02:27:04;;;;;;;8.52;4.60;;;14.10;99.90;;;;;;5021810;28;20033;-83
2023/06/28 02:29:30;;;;;;;9.15;5.20;;;14.10;99.90;;;;;;5056785;28;20033;-82
2023/06/28 02:31:56;;;;;;;10.38;4.70;;;14.10;99.90;;;;;;5035882;28;20033;-82
2023/06/28 02:34:22;;;;;;;7.75;4.47;;;14.10;99.90;;;;;;5060040;28;20491;-83
2023/06/28 02:36:48;;;;;;;12.05;5.30;;;14.20;99.90;;;;;;5061198;28;20059;-83
2023/06/28 02:39:14;;;;;;;7.38;4.57;;;14.20;99.90;;;;;;5059332;28;20045;-82
2023/06/28 02:41:40;;;;;;;5.15;4.18;;;14.20;99.90;;;;;;5039234;28;20037;-83
2023/06/28 02:44:05;;;;;;;9.02;4.70;;;14.20;99.90;;;;;;5059954;28;20059;-82
2023/06/28 02:46:31;;;;;;;8.95;5.30;;;14.20;99.90;;;;;;5061797;28;20037;-81
2023/06/28 02:48:57;;;;;;;11.75;5.32;;;14.20;99.90;;;;;;5060851;28;20053;-81
2023/06/28 02:51:23;;;;;;;8.88;4.82;;;14.20;99.90;;;;;;5056072;28;20045;-82
2023/06/28 02:53:49;;;;;;;8.65;4.85;;;14.20;99.90;;;;;;5039620;28;20048;-81
2023/06/28 02:56:15;;;;;;;10.15;4.47;;;14.30;99.90;;;;;;5070170;28;20036;-80
2023/06/28 02:58:42;;;;;;;8.38;4.75;;;14.20;99.90;;;;;;5078315;28;20499;-80
2023/06/28 03:01:09;;;;;;;9.85;4.93;;;14.30;99.90;;;;;;5080275;28;20048;-81
2023/06/28 03:03:36;;;;;;;9.60;5.05;;;14.40;99.90;;;;;;5045429;28;20046;-81
2023/06/28 03:06:03;;;;;;;7.13;4.90;;;14.40;99.90;;;;;;5040277;28;20036;-81
2023/06/28 03:08:29;;;;;;;8.43;4.80;;;14.40;99.90;;;;;;5039914;28;20052;-81
2023/06/28 03:10:55;;;;;;;8.75;4.88;;;14.40;99.90;;;;;;5042904;28;20384;-80
2023/06/28 03:13:21;;;;;;;8.32;4.57;;;;;;;;;;5052176;28;20080;-81
2023/06/28 03:15:46;;;;;;;9.75;4.72;;;14.50;99.90;;;;;;5061736;28;20049;-81
2023/06/28 03:18:12;;;;;;;7.82;4.70;;;14.50;99.90;;;;;;5045043;28;20049;-81
2023/06/28 03:20:38;;;;;;;11.00;4.80;;;14.50;99.90;;;;;;5055729;28;20033;-82
2023/06/28 03:23:03;;;;;;;8.25;4.90;;;14.60;99.90;;;;;;5041527;28;20041;-81
2023/06/28 03:25:29;;;;;;;8.38;5.13;;;14.60;99.90;;;;;;5055478;28;20096;-81
2023/06/28 03:27:55;;;;;;;10.02;4.25;;;14.60;99.90;;;;;;5044399;28;20045;-80
2023/06/28 03:30:21;;;;;;;8.60;4.40;;;14.60;99.90;;;;;;5076416;28;20041;-80
2023/06/28 03:32:47;;;;;;;8.85;4.70;;;14.60;99.90;;;;;;5044648;28;20056;-81
2023/06/28 03:35:13;;;;;;;10.57;4.65;;;14.70;99.90;;;;;;5044538;28;20052;-81
2023/06/28 03:37:38;;;;;;;8.52;4.63;;;14.60;99.90;;;;;;5062278;28;20041;-81
2023/06/28 03:40:05;;;;;;;7.40;4.68;;;14.70;99.90;;;;;;5027332;28;20041;-82
2023/06/28 03:42:31;;;;;;;9.68;4.38;;;14.60;99.90;;;;;;5043271;28;20096;-81
2023/06/28 03:44:56;;;;;;;7.70;4.68;;;14.60;99.90;;;;;;5060048;28;20068;-81
2023/06/28 03:47:22;;;;;;;7.45;4.65;;;14.60;99.90;;;;;;5051263;28;20041;-81
2023/06/28 03:49:48;;;;;;;8.05;4.55;;;14.70;99.90;;;;;;5060326;28;20120;-80
2023/06/28 03:52:14;;;;;;;7.32;4.13;;;14.70;99.90;;;;;;5059767;28;20459;-80
2023/06/28 03:54:39;;;;;;;9.57;4.47;;;14.70;99.90;;;;;;5041769;28;20056;-81
2023/06/28 03:57:05;;;;;;;6.10;4.45;;;14.70;99.90;;;;;;5058983;28;20037;-80
2023/06/28 03:59:31;;;;;;;9.35;4.30;;;14.70;99.90;;;;;;5060606;28;20048;-81
2023/06/28 04:01:57;;;;;;;9.00;4.32;;;14.70;99.90;;;;;;5026296;28;20499;-80
2023/06/28 04:04:23;;;;;;;6.47;4.28;;;14.70;99.90;;;;;;5042563;28;20066;-81
2023/06/28 04:06:48;;;;;;;7.85;4.25;;;14.70;99.90;;;;;;5058416;28;20521;-81
2023/06/28 04:09:15;;;;;;;6.28;4.07;;;14.70;99.90;;;;;;5057560;28;20100;-81
2023/06/28 04:11:41;;;;;;;5.47;4.05;;;14.80;99.90;;;;;;5041645;28;20033;-80
2023/06/28 04:14:07;;;;;;;6.45;4.82;;;14.80;99.90;;;;;;5056819;28;20055;-81
2023/06/28 04:16:33;;;;;;;7.90;4.50;;;14.90;99.90;;;;;;5043349;28;20041;-81
2023/06/28 04:18:59;;;;;;;4.88;3.85;;;14.90;99.90;;;;;;5048515;28;20037;-81
2023/06/28 04:21:26;;;;;;;6.07;3.90;;;14.90;99.90;;;;;;5030640;28;20418;-80
2023/06/28 04:23:51;;;;;;;7.78;4.22;;;15.00;99.90;;;;;;5064654;28;20075;-80
2023/06/28 04:26:19;;;;;;;7.30;4.43;;;15.00;99.90;;;;;;5048214;28;20040;-80
2023/06/28 04:28:45;;;;;;;10.13;4.47;;;15.10;99.90;;;;;;5048298;28;20041;-81
2023/06/28 04:31:10;;;;;;;7.90;4.20;;;15.10;99.90;;;;;;5062722;28;20040;-80
2023/06/28 04:33:36;;;;;;;6.72;4.50;;;15.10;99.90;;;;;;5059412;28;20044;-81
2023/06/28 04:36:02;;;;;;;8.00;4.78;;;15.20;99.90;;;;;;5066394;28;20068;-81
2023/06/28 04:38:32;;;;;;;6.03;4.38;;;15.30;99.90;;;;;;5062454;28;20047;-81
2023/06/28 04:40:58;;;;;;;7.88;4.45;;;15.30;99.90;;;;;;5047436;28;20036;-81
2023/06/28 04:43:24;;;;;;;8.13;4.38;;;15.30;99.90;;;;;;5044289;28;20163;-81
2023/06/28 04:45:49;;;;;;;5.80;4.50;;;15.40;99.90;;;;;;5048632;28;20434;-81
2023/06/28 04:48:15;;;;;;;7.00;4.32;;;15.40;99.90;;;;;;5047834;28;20037;-81
2023/06/28 04:50:41;;;;;;;7.50;3.92;;;15.40;99.90;;;;;;5048257;28;20438;-81
2023/06/28 04:53:07;;;;;;;5.10;3.90;;;15.40;99.90;;;;;;5064314;28;20037;-82
2023/06/28 04:55:34;;;;;;;5.88;3.63;;;15.40;99.90;;;;;;5064266;28;20478;-83
2023/06/28 04:58:05;;;;;;;4.95;3.38;;;15.40;99.90;;;;;;5060750;28;20049;-83
2023/06/28 05:00:31;;;;;;;6.07;3.30;;;15.40;99.90;;;;;;5039526;28;20044;-83
2023/06/28 05:02:59;;;;;;;4.35;2.75;;;15.30;99.90;;;;;;5062488;28;20045;-82
2023/06/28 05:05:26;;;;;;;6.32;2.75;;;15.30;99.90;;;;;;5063647;28;20049;-82
2023/06/28 05:07:53;;;;;;;5.32;2.90;;;15.30;99.90;;;;;;5061413;28;20437;-82
2023/06/28 05:10:22;;;;;;;4.25;2.30;;;15.30;99.90;;;;;;5064760;28;20037;-80
2023/06/28 05:12:50;;;;;;;4.30;2.40;;;15.30;99.90;;;;;;5067040;28;20568;-83
2023/06/28 05:15:16;;;;;;;4.45;2.58;;;15.30;99.90;;;;;;5031268;28;20045;-83
2023/06/28 05:17:42;;;;;;;4.90;2.47;;;15.30;99.90;;;;;;5048210;28;20071;-82
2023/06/28 05:20:08;;;;;;;3.70;2.25;;;15.30;99.90;;;;;;5067438;28;20045;-82
2023/06/28 05:22:34;;;;;;;2.88;2.22;;;15.30;99.90;;;;;;5066783;28;20120;-82
2023/06/28 05:25:00;;;;;;;4.75;2.63;;;15.30;99.90;;;;;;5064820;28;20100;-83
2023/06/28 05:27:25;;;;;;;4.10;2.45;;;15.40;99.90;;;;;;5057669;28;20044;-82
2023/06/28 05:29:51;;;;;;;6.10;2.35;;;15.40;99.90;;;;;;5058239;28;20041;-81
2023/06/28 05:32:18;;;;;;;5.28;2.72;;;15.50;99.90;;;;;;5055905;28;20084;-81
2023/06/28 05:34:43;;;;;;;4.28;2.67;;;15.60;99.90;;;;;;5039651;28;20086;-81
2023/06/28 05:37:09;;;;;;;4.53;2.90;;;15.60;99.90;;;;;;5061085;28;20084;-81
2023/06/28 05:39:35;;;;;;;5.35;3.03;;;15.70;99.90;;;;;;5062065;28;20100;-80
2023/06/28 05:42:01;;;;;;;5.90;2.88;;;15.80;99.90;;;;;;5061372;28;20051;-80
2023/06/28 05:44:26;;;;;;;4.32;3.03;;;15.80;99.90;;;;;;5038251;28;20556;-80
2023/06/28 05:46:52;;;;;;;4.88;2.97;;;15.80;99.90;;;;;;5046828;28;20052;-80
2023/06/28 05:49:18;;;;;;;4.40;2.88;;;15.90;99.90;;;;;;5061843;28;20056;-81
2023/06/28 05:51:44;;;;;;;3.85;3.08;;;16.00;99.90;;;;;;5040284;28;20104;-80
2023/06/28 05:54:10;;;;;;;6.07;3.30;;;16.10;99.90;;;;;;5057279;28;20076;-78
2023/06/28 05:56:35;;;;;;;3.60;2.65;;;16.10;99.90;;;;;;5039497;28;20064;-78
2023/06/28 05:59:01;;;;;;;4.20;2.78;;;16.20;99.90;;;;;;5052187;28;20037;-80
2023/06/28 06:01:28;;;;;;;3.50;2.40;;;16.10;99.90;;;;;;5039941;28;20488;-78
2023/06/28 06:03:54;;;;;;;6.13;2.97;;;16.20;99.90;;;;;;5057170;28;20044;-79
2023/06/28 06:06:19;;;;;;;3.40;2.45;;;16.30;99.90;;;;;;5059524;28;20037;-80
2023/06/28 06:08:45;;;;;;;4.35;2.75;;;16.40;99.90;;;;;;5059249;28;20529;-78
2023/06/28 06:11:11;;;;;;;9.27;3.03;;;16.60;99.90;;;;;;5040156;28;20136;-78
2023/06/28 06:13:36;;;;;;;5.18;3.35;;;16.80;99.90;;;;;;5042005;28;20045;-79
2023/06/28 06:16:02;;;;;;;4.18;2.80;;;17.00;99.90;;;;;;5047313;28;20045;-79
2023/06/28 06:18:28;;;;;;;8.75;3.22;;;17.10;99.90;;;;;;5054470;28;20029;-79
2023/06/28 06:20:53;;;;;;;5.80;3.30;;;17.30;99.90;;;;;;5034707;28;20110;-78
2023/06/28 06:23:19;;;;;;;6.97;2.97;;;17.30;99.90;;;;;;5056254;28;20075;-80
2023/06/28 06:25:45;;;;;;;7.22;3.45;;;17.40;99.90;;;;;;5054160;28;20061;-79
2023/06/28 06:28:11;;;;;;;5.85;3.95;;;17.40;99.90;;;;;;5054776;28;20341;-78
2023/06/28 06:30:36;;;;;;;4.40;3.40;;;17.30;99.90;;;;;;5037596;28;20198;-79
2023/06/28 06:33:02;;;;;;;4.68;3.50;;;17.30;99.90;;;;;;5056354;28;20506;-79
2023/06/28 06:35:28;;;;;;;5.72;3.75;;;17.30;99.90;;;;;;5058494;28;20044;-79
2023/06/28 06:37:54;;;;;;;6.22;3.72;;;17.20;99.90;;;;;;5031319;28;20494;-78
2023/06/28 06:40:20;;;;;;;6.03;4.20;;;17.10;99.90;;;;;;5036031;28;20172;-78
2023/06/28 06:42:46;;;;;;;8.77;4.28;;;17.10;99.90;;;;;;5055241;28;20136;-78
2023/06/28 06:45:17;;;;;;;6.80;4.32;;;16.90;99.90;;;;;;5032170;28;20079;-78
2023/06/28 06:47:44;;;;;;;5.90;4.65;;;16.90;99.90;;;;;;5048845;28;20041;-77
2023/06/28 06:50:10;;;;;;;6.97;4.85;;;16.80;99.90;;;;;;5049878;28;20045;-78
2023/06/28 06:52:37;;;;;;;8.60;5.47;;;16.80;99.90;;;;;;5051348;28;20411;-78
2023/06/28 06:55:05;;;;;;;10.13;4.90;;;16.80;99.90;;;;;;5031982;28;20036;-78
2023/06/28 06:57:30;;;;;;;8.50;5.15;;;16.80;99.90;;;;;;5052660;28;20041;-78
2023/06/28 06:59:56;;;;;;;8.98;4.97;;;16.80;99.90;;;;;;5030747;28;20041;-78
2023/06/28 07:02:22;;;;;;;7.28;5.38;;;16.90;99.90;;;;;;5047464;28;20111;-78
2023/06/28 07:04:48;;;;;;;8.15;5.07;;;17.00;99.90;;;;;;5047092;28;20071;-79
2023/06/28 07:07:14;;;;;;;7.65;5.93;;;17.10;99.90;;;;;;5032764;28;20479;-78
2023/06/28 07:09:39;;;;;;;6.50;5.35;;;17.20;99.90;;;;;;5051310;28;20033;-79
2023/06/28 07:12:06;;;;;;;9.63;5.85;;;17.20;99.90;;;;;;5011989;28;20044;-80
2023/06/28 07:14:31;;;;;;;8.38;5.43;;;17.10;99.90;;;;;;5047832;28;20037;-78
2023/06/28 07:16:57;;;;;;;8.48;5.35;;;17.10;99.90;;;;;;5031626;28;20062;-80
2023/06/28 07:19:22;;;;;;;8.27;5.20;;;17.10;99.90;;;;;;5043794;28;20049;-80
2023/06/28 07:21:48;;;;;;;9.35;5.38;;;17.10;99.90;;;;;;5038325;28;20080;-79
2023/06/28 07:24:14;;;;;;;8.50;5.20;;;17.20;99.90;;;;;;5041580;28;20068;-79
2023/06/28 07:26:40;;;;;;;9.43;5.45;;;17.40;99.90;;;;;;5026957;28;20050;-79
2023/06/28 07:29:05;;;;;;;8.60;5.85;;;17.30;99.90;;;;;;5053464;28;20372;-80
2023/06/28 07:31:31;;;;;;;6.68;5.15;;;17.30;99.90;;;;;;5060015;28;20056;-80
2023/06/28 07:33:58;;;;;;;7.00;5.40;;;17.40;99.90;;;;;;5061118;28;20056;-79
2023/06/28 07:36:23;;;;;;;8.35;5.07;;;17.30;99.90;;;;;;5059702;28;20090;-79
2023/06/28 07:38:50;;;;;;;6.22;5.20;;;17.20;99.90;;;;;;5060690;28;20562;-79
2023/06/28 07:41:16;;;;;;;10.70;5.72;;;17.10;99.90;;;;;;5059839;28;20075;-80
2023/06/28 07:43:42;;;;;;;10.50;5.85;;;17.00;99.90;;;;;;5045939;28;20040;-80
2023/06/28 07:46:08;;;;;;;8.20;5.47;;;17.10;99.90;;;;;;5062966;28;20051;-79
2023/06/28 07:48:33;;;;;;;10.20;5.40;;;17.10;99.90;;;;;;5063991;28;20053;-80
2023/06/28 07:50:59;;;;;;;9.93;5.85;;;17.20;99.90;;;;;;5062401;28;20033;-80
2023/06/28 07:53:25;;;;;;;8.07;5.30;;;17.30;99.90;;;;;;5043202;28;20047;-80
2023/06/28 07:55:50;;;;;;;9.68;5.43;;;17.30;99.90;;;;;;5061288;28;20100;-79
2023/06/28 07:58:16;;;;;;;10.95;5.57;;;17.40;99.90;;;;;;5064001;28;20119;-80
2023/06/28 08:00:42;;;;;;;8.23;5.38;;;17.40;99.90;;;;;;5062175;28;20072;-80
2023/06/28 08:03:07;;;;;;;7.75;5.43;;;17.50;99.90;;;;;;5029207;28;20045;-80
2023/06/28 08:05:33;;;;;;;8.40;4.78;;;17.60;99.90;;;;;;5045731;28;20041;-80
2023/06/28 08:07:59;;;;;;;8.55;5.43;;;17.60;99.90;;;;;;5060873;28;20052;-80
2023/06/28 08:10:27;;;;;;;8.55;5.60;;;17.70;99.90;;;;;;5058005;28;20072;-80
2023/06/28 08:12:53;;;;;;;9.35;5.28;;;17.60;99.90;;;;;;5043820;28;20049;-80
2023/06/28 08:15:19;;;;;;;8.32;5.75;;;17.70;99.90;;;;;;5061903;28;20082;-80
2023/06/28 08:17:46;;;;;;;9.52;5.72;;;17.50;99.90;;;;;;5063036;28;20041;-80
2023/06/28 08:20:13;;;;;;;9.63;5.45;;;17.50;99.90;;;;;;5053675;28;20049;-80
2023/06/28 08:22:39;;;;;;;7.72;5.38;;;17.50;99.90;;;;;;5060596;28;20111;-80
2023/06/28 08:25:05;;;;;;;10.25;4.90;;;17.50;99.90;;;;;;5042775;28;20458;-79
2023/06/28 08:27:30;;;;;;;8.90;4.88;;;17.50;99.90;;;;;;5024426;28;20049;-79
2023/06/28 08:29:58;;;;;;;10.05;5.00;;;17.50;99.90;;;;;;5038649;28;20053;-80
2023/06/28 08:32:24;;;;;;;8.55;5.70;;;17.60;99.90;;;;;;5037054;28;20037;-80
2023/06/28 08:34:49;;;;;;;7.40;5.57;;;17.80;99.90;;;;;;5058552;28;20137;-80
2023/06/28 08:37:16;;;;;;;6.30;4.95;;;17.90;99.90;;;;;;5057031;28;20052;-80
2023/06/28 08:39:41;;;;;;;8.80;5.43;;;18.00;99.90;;;;;;5055761;28;20403;-80
2023/06/28 08:42:08;;;;;;;11.52;6.20;;;18.20;99.90;;;;;;5041545;28;20045;-80
2023/06/28 08:44:36;;;;;;;8.85;5.40;;;18.30;99.90;;;;;;5060441;28;20047;-80
2023/06/28 08:47:03;;;;;;;10.98;5.43;;;18.60;99.90;;;;;;5041066;28;20045;-80
2023/06/28 08:49:31;;;;;;;10.20;5.97;;;18.60;99.90;;;;;;5042481;28;20060;-80
2023/06/28 08:51:57;;;;;;;7.25;5.22;;;18.50;99.90;;;;;;5063121;28;20386;-80
2023/06/28 08:54:27;;;;;;;8.32;5.40;;;18.50;99.90;;;;;;5060753;28;20394;-80
2023/06/28 08:56:56;;;;;;;7.88;5.40;;;18.60;99.90;;;;;;5059606;28;20091;-80
2023/06/28 08:59:22;;;;;;;9.88;5.43;;;18.50;99.90;;;;;;5061454;28;20040;-80
2023/06/28 09:01:50;;;;;;;7.97;5.60;;;18.50;99.90;;;;;;5059050;28;20052;-80
2023/06/28 09:04:17;;;;;;;9.32;5.70;;;18.40;99.90;;;;;;5030678;28;20053;-80
2023/06/28 09:06:43;;;;;;;9.88;5.80;;;18.50;99.90;;;;;;5064539;28;20090;-80
2023/06/28 09:09:10;;;;;;;8.63;6.00;;;18.60;99.90;;;;;;5068001;28;20100;-80
2023/06/28 09:11:37;;;;;;;10.57;6.28;;;18.50;99.90;;;;;;5064672;28;20040;-80
2023/06/28 09:14:03;;;;;;;10.02;6.80;;;18.60;99.90;;;;;;5065052;28;20116;-80
2023/06/28 09:16:29;;;;;;;10.23;6.47;;;18.50;99.90;;;;;;5064164;28;20072;-79
2023/06/28 09:18:55;;;;;;;8.50;6.25;;;;;;;;;;5065778;28;20446;-81
2023/06/28 09:21:28;;;;;;;8.57;6.43;;;18.60;99.90;;;;;;5063118;28;20449;-80
2023/06/28 09:23:54;;;;;;;7.90;6.45;;;18.50;99.90;;;;;;5046736;28;20104;-80
2023/06/28 09:26:21;;;;;;;7.78;5.85;;;18.50;99.90;;;;;;5069767;28;20051;-80
2023/06/28 09:28:48;;;;;;;10.83;7.17;;;18.60;99.90;;;;;;5066550;28;20059;-80
2023/06/28 09:31:18;;;;;;;10.25;6.68;;;18.40;99.90;;;;;;5069670;28;20307;-80
2023/06/28 09:33:44;;;;;;;9.57;6.97;;;18.50;99.90;;;;;;5045552;28;20052;-79
2023/06/28 09:36:10;;;;;;;11.98;7.45;;;18.60;99.90;;;;;;5045617;28;20041;-80
2023/06/28 09:38:44;;;;;;;9.93;7.53;;;18.60;99.90;;;;;;5064241;28;20578;-80
2023/06/28 09:41:10;;;;;;;13.20;8.18;;;18.60;99.90;;;;;;5045115;28;20049;-80
2023/06/28 09:43:36;;;;;;;12.18;7.97;;;18.70;99.90;;;;;;5064702;28;20492;-80
2023/06/28 09:46:12;;;;;;;12.18;8.50;;;18.70;99.90;;;;;;5045946;28;20048;-80
2023/06/28 09:48:42;;;;;;;12.33;9.00;;;18.70;99.90;;;;;;5061982;28;20045;-80
2023/06/28 09:51:09;;;;;;;16.75;10.52;;;18.80;99.90;;;;;;5057825;28;20049;-80
2023/06/28 09:53:49;;;;;;;13.73;9.70;;;18.70;99.90;;;;;;5041854;28;20120;-80
2023/06/28 09:56:16;;;;;;;14.52;9.98;;;18.70;99.90;;;;;;5061306;28;20553;-80
2023/06/28 09:58:47;;;;;;;14.07;10.17;;;18.70;99.90;;;;;;5060389;28;20139;-80
2023/06/28 10:01:16;;;;;;;11.85;9.57;;;18.70;99.90;;;;;;5062716;28;20302;-80
2023/06/28 10:03:46;;;;;;;12.68;9.15;;;18.70;99.90;;;;;;5043698;28;20040;-80
2023/06/28 10:06:13;;;;;;;14.25;10.15;;;18.70;99.90;;;;;;5063936;28;20104;-80
2023/06/28 10:08:39;;;;;;;13.80;10.27;;;18.80;99.90;;;;;;5026267;28;20052;-80
2023/06/28 10:11:16;;;;;;;15.27;9.93;;;18.80;99.90;;;;;;5044224;28;20050;-80
2023/06/28 10:13:45;;;;;;;15.23;10.35;;;18.80;99.90;;;;;;5026598;28;20045;-80
2023/06/28 10:16:18;;;;;;;15.70;9.77;;;18.80;99.90;;;;;;5043287;28;20091;-80
2023/06/28 10:18:43;;;;;;;12.80;9.48;;;18.90;99.90;;;;;;5045514;28;20538;-81
2023/06/28 10:21:09;;;;;;;12.65;10.25;;;19.00;99.90;;;;;;5042704;28;20132;-81
2023/06/28 10:23:39;;;;;;;12.60;9.73;;;19.10;99.90;;;;;;5041993;28;20559;-81
2023/06/28 10:26:05;;;;;;;14.38;10.55;;;18.90;99.90;;;;;;5041470;28;20076;-81
2023/06/28 10:28:34;;;;;;;14.18;9.60;;;18.90;99.90;;;;;;5042792;28;20092;-81
2023/06/28 10:31:02;;;;;;;12.45;9.18;;;19.10;99.90;;;;;;5041116;28;20052;-81
2023/06/28 10:33:31;;;;;;;10.05;8.90;;;19.10;99.90;;;;;;5041618;28;20116;-81
2023/06/28 10:36:00;;;;;;;9.90;8.90;;;19.10;99.90;;;;;;5021970;28;20042;-81
2023/06/28 10:38:33;;;;;;;10.00;8.55;;;19.10;99.90;;;;;;5023345;28;20046;-81
2023/06/28 10:41:00;;;;;;;11.82;9.32;;;19.10;99.90;;;;;;5038335;28;20060;-81
2023/06/28 10:43:27;;;;;;;12.75;9.07;;;19.10;99.90;;;;;;5041249;28;20395;-81
2023/06/28 10:45:52;;;;;;;13.65;9.30;;;19.10;99.90;;;;;;5042697;28;20037;-81
2023/06/28 10:48:20;;;;;;;11.55;9.32;;;19.10;99.90;;;;;;5042573;28;20126;-81
2023/06/28 10:50:47;;;;;;;12.07;9.30;;;19.20;99.90;;;;;;5042675;28;20480;-81
2023/06/28 10:53:19;;;;;;;11.88;10.60;;;19.20;99.90;;;;;;5029785;28;20053;-81
2023/06/28 10:56:03;;;;;;;13.23;9.70;;;19.10;99.90;;;;;;5043823;28;20059;-81
2023/06/28 10:58:38;;;;;;;13.90;9.82;;;19.00;99.90;;;;;;5058472;28;20044;-81
2023/06/28 11:01:30;;;;;;;;;;;19.00;99.90;;;;;;5045653;28;20104;-81
2023/06/28 11:04:17;;;;;;;11.40;9.52;;;19.10;99.90;;;;;;5043712;28;19921;-81
2023/06/28 11:06:44;;;;;;;15.52;9.95;;;19.00;99.90;;;;;;5043846;28;20037;-81
2023/06/28 11:09:15;;;;;;;11.30;9.45;;;19.00;99.90;;;;;;5059995;28;20048;-81
2023/06/28 11:11:56;;;;;;;12.85;10.02;;;19.10;99.90;;;;;;5055153;28;20081;-81
2023/06/28 11:14:33;;;;;;;12.93;9.38;;;19.20;99.90;;;;;;5036710;28;20045;-81
2023/06/28 11:17:11;;;;;;;10.30;9.13;;;19.30;99.90;;;;;;5062749;28;20037;-81
2023/06/28 11:19:39;;;;;;;9.10;8.20;;;19.20;99.90;;;;;;5055779;28;20526;-81
2023/06/28 11:22:05;;;;;;;9.77;8.77;;;19.20;99.90;;;;;;5045286;28;20049;-81
2023/06/28 11:24:36;;;;;;;9.45;8.07;;;19.20;99.90;;;;;;5044557;28;20047;-81
2023/06/28 11:27:02;;;;;;;10.48;8.57;;;19.20;99.90;;;;;;5062522;28;20044;-81
2023/06/28 11:29:28;;;;;;;9.10;8.30;;;19.10;99.90;;;;;;5063144;28;20045;-81
2023/06/28 11:31:58;;;;;;;8.55;7.57;;;19.20;99.90;;;;;;5061537;28;20114;-81
2023/06/28 11:34:25;;;;;;;9.90;8.63;;;19.30;99.90;;;;;;5054675;28;20512;-81
2023/06/28 11:36:52;;;;;;;10.25;8.40;;;19.30;99.90;;;;;;5043559;28;20052;-81
2023/06/28 11:39:19;;;;;;;10.73;8.73;;;19.20;99.90;;;;;;5025546;28;20061;-81
2023/06/28 11:41:45;;;;;;;10.13;9.07;;;19.20;99.90;;;;;;5048377;28;20105;-81
2023/06/28 11:44:13;;;;;;;9.35;8.38;;;19.20;99.90;;;;;;5054454;28;20052;-81
2023/06/28 11:46:40;;;;;;;9.63;8.60;;;19.30;99.90;;;;;;5044603;28;20122;-81
2023/06/28 11:49:11;;;;;;;9.52;8.57;;;19.70;99.90;;;;;;5032266;28;20067;-81
2023/06/28 11:51:38;;;;;;;10.70;8.55;;;19.50;99.90;;;;;;5049824;28;20041;-81
2023/06/28 11:54:07;;;;;;;9.23;8.18;;;19.60;99.90;;;;;;5045273;28;20071;-80
2023/06/28 11:56:37;;;;;;;9.60;8.73;;;19.60;99.90;;;;;;5069949;28;20041;-80
2023/06/28 11:59:16;;;;;;;9.70;8.05;;;19.50;99.90;;;;;;5074301;28;20044;-81
2023/06/28 12:01:42;;;;;;;8.80;8.00;;;19.60;99.90;;;;;;5067002;28;20044;-80
2023/06/28 12:04:19;;;;;;;10.35;8.77;;;19.70;99.90;;;;;;5068845;28;20041;-80
2023/06/28 12:06:46;;;;;;;8.98;8.10;;;19.80;99.90;;;;;;5052463;28;20132;-80
2023/06/28 12:09:20;;;;;;;10.68;9.30;;;19.90;99.90;;;;;;5068683;28;20057;-80
2023/06/28 12:11:53;;;;;;;10.60;9.35;;;20.10;99.90;;;;;;5066724;28;20041;-80
2023/06/28 12:14:21;;;;;;;9.38;8.40;;;20.20;99.90;;;;;;5061646;28;20093;-80
2023/06/28 12:16:47;;;;;;;;;;;20.40;99.90;;;;;;5052885;28;20044;-80
2023/06/28 12:19:16;;;;;;;11.60;10.40;;;20.50;99.90;;;;;;5059899;28;20394;-80
2023/06/28 12:21:42;;;;;;;12.85;9.48;;;20.50;99.90;;;;;;5040036;28;20041;-81
2023/06/28 12:24:19;;;;;;;11.02;9.45;;;20.60;99.90;;;;;;5057788;28;20542;-81
2023/06/28 12:26:48;;;;;;;10.63;9.10;;;20.60;99.90;;;;;;5052679;28;20041;-81
2023/06/28 12:29:18;;;;;;;11.95;9.98;;;20.50;99.90;;;;;;5056163;28;20541;-81
2023/06/28 12:31:47;;;;;;;12.73;9.20;;;20.50;99.90;;;;;;5038041;28;20048;-80
2023/06/28 12:34:14;;;;;;;14.02;9.98;;;20.40;99.90;;;;;;5070222;28;20384;-80
2023/06/28 12:36:40;;;;;;;14.00;10.43;;;20.50;99.90;;;;;;5066401;28;20045;-80
2023/06/28 12:39:07;;;;;;;11.38;9.95;;;20.50;99.90;;;;;;5062230;28;20064;-80
2023/06/28 12:41:33;;;;;;;11.45;10.23;;;20.60;99.90;;;;;;5069414;28;20048;-81
2023/06/28 12:43:58;;;;;;;13.43;10.00;;;20.70;99.90;;;;;;5068387;28;20052;-81